Terminal Aerodrome Forecast
Issued by NWS

Current Version | Previous Version | Graphics & Text | Print | Product List | Glossary On
Versions: 1 2 3 4 5 6 7 8 9 10 11 12 13 14 15 16 17 18 19 20 21 22 23 24 25 26 27 28 29
000
FTUS41 KILN 250500 RRA
TAFLUK
TAF
KLUK 250542Z 2506/2606 21005KT P6SM SCT060
      TEMPO 2506/2507 OVC060
     FM251500 25010KT P6SM SCT035
     FM251800 26009KT P6SM BKN035
     FM252300 VRB03KT P6SM BKN035=

USA.gov is the U.S. government's official web portal to all federal, state and local government web resources and services.